Time;durP1;ratioP1;P1;durP2;ratioP2;P2;SDS_P1;SDS_P2;PMS_P1;PMS_P2;Temp;Humidity;BMP_temperature;BMP_pressure;BME280_temperature;BME280_humidity;BME280_pressure;Samples;Min_cycle;Max_cycle;Signal;HPM_P1;HPM_P2
2023/01/18 00:01:59;;;;;;;19.77;7.03;;;;;;;;;;6207322;23;20082;-91
2023/01/18 00:04:31;;;;;;;20.10;7.38;;;;;;;;;;6245103;23;20448;-91
2023/01/18 00:06:59;;;;;;;21.05;7.55;;;;;;;;;;6185075;23;20056;-91
2023/01/18 00:09:31;;;;;;;21.23;7.43;;;;;;;;;;6273190;22;20123;-91
2023/01/18 00:12:03;;;;;;;20.33;6.95;;;;;;;;;;6248332;23;20498;-91
2023/01/18 00:14:31;;;;;;;19.70;7.63;;;;;;;;;;6216262;23;20044;-92
2023/01/18 00:17:09;;;;;;;17.58;7.07;;;;;;;;;;6251186;23;20020;-91
2023/01/18 00:19:41;;;;;;;18.60;7.50;;;;;;;;;;6213161;23;20034;-91
2023/01/18 00:22:13;;;;;;;17.58;6.95;;;;;;;;;;6212690;23;20024;-91
2023/01/18 00:24:41;;;;;;;17.13;7.25;;;;;;;;;;6186552;23;20020;-91
2023/01/18 00:27:09;;;;;;;13.57;6.10;;;;;;;;;;6221113;23;20030;-91
2023/01/18 00:29:41;;;;;;;16.65;7.13;;;;;;;;;;6246308;23;20023;-91
2023/01/18 00:32:13;;;;;;;18.17;7.22;;;;;;;;;;6186529;23;20411;-89
2023/01/18 00:34:41;;;;;;;16.92;6.45;;;;;;;;;;6237720;23;20052;-91
2023/01/18 00:37:09;;;;;;;17.38;7.28;;;;;;;;;;6247723;23;20026;-91
2023/01/18 00:39:37;;;;;;;22.88;7.30;;;;;;;;;;6222207;23;20468;-91
2023/01/18 00:45:15;;;;;;;20.08;7.22;;;;;;;;;;6235685;22;20027;-91
2023/01/18 00:47:43;;;;;;;17.35;8.55;;;;;;;;;;6208865;23;20859;-91
2023/01/18 00:50:11;;;;;;;14.55;6.55;;;;;;;;;;6245983;22;20020;-91
2023/01/18 00:52:39;;;;;;;17.90;7.00;;;;;;;;;;6244318;23;20027;-92
2023/01/18 00:55:16;;;;;;;19.38;7.47;;;;;;;;;;6183043;23;20070;-91
2023/01/18 00:57:43;;;;;;;21.42;8.13;;;;;;;;;;6231619;23;20028;-91
2023/01/18 01:00:14;;;;;;;22.77;7.18;;;;;;;;;;6209788;23;20044;-91
2023/01/18 01:02:41;;;;;;;24.70;8.18;;;;;;;;;;6213025;23;20031;-91
2023/01/18 01:08:07;;;;;;;17.65;7.38;;;;;;;;;;6249503;23;20016;-92
2023/01/18 01:10:39;;;;;;;19.02;6.60;;;;;;;;;;6249590;23;20087;-92
2023/01/18 01:27:21;;;;;;;17.30;7.68;;;;;;;;;;6249975;23;20046;-92
2023/01/18 01:29:51;;;;;;;20.85;7.65;;;;;;;;;;6247769;23;20020;-91
2023/01/18 01:32:19;;;;;;;19.13;7.32;;;;;;;;;;6252710;23;20019;-90
2023/01/18 01:35:11;;;;;;;25.77;9.30;;;;;;;;;;6249833;23;20498;-91
2023/01/18 01:37:39;;;;;;;22.45;7.50;;;;;;;;;;6248809;23;20103;-91
2023/01/18 01:40:07;;;;;;;22.05;8.80;;;;;;;;;;6248921;23;20091;-91
2023/01/18 01:42:35;;;;;;;21.23;8.00;;;;;;;;;;6251569;22;20104;-92
2023/01/18 01:45:03;;;;;;;19.75;8.52;;;;;;;;;;6224075;23;20039;-91
2023/01/18 01:47:43;;;;;;;22.15;8.45;;;;;;;;;;6249174;23;20440;-92
2023/01/18 01:50:16;;;;;;;20.52;8.65;;;;;;;;;;6249254;23;20095;-91
2023/01/18 01:52:46;;;;;;;15.80;7.40;;;;;;;;;;6249755;22;20034;-91
2023/01/18 01:55:16;;;;;;;23.20;9.10;;;;;;;;;;6213726;23;20410;-91
2023/01/18 02:00:53;;;;;;;19.25;8.25;;;;;;;;;;6238246;23;20050;-90
2023/01/18 02:03:23;;;;;;;22.95;8.98;;;;;;;;;;6237637;23;20051;-90
2023/01/18 02:05:59;;;;;;;22.55;9.20;;;;;;;;;;6250080;22;20030;-90
2023/01/18 02:08:51;;;;;;;18.85;7.18;;;;;;;;;;6248823;23;20022;-90
2023/01/18 02:12:09;;;;;;;19.50;7.53;;;;;;;;;;6250530;23;20012;-91
2023/01/18 02:14:37;;;;;;;25.77;9.15;;;;;;;;;;6189437;23;20326;-90
2023/01/18 02:17:39;;;;;;;25.02;8.57;;;;;;;;;;6249179;23;20031;-90
2023/01/18 02:20:47;;;;;;;17.90;7.93;;;;;;;;;;6248661;23;20043;-91
2023/01/18 02:23:42;;;;;;;22.10;8.85;;;;;;;;;;6249148;23;20024;-91
2023/01/18 02:26:32;;;;;;;21.52;7.05;;;;;;;;;;6248939;23;20022;-90
2023/01/18 02:29:13;;;;;;;22.88;8.52;;;;;;;;;;6248748;23;20055;-91
2023/01/18 02:32:17;;;;;;;20.63;9.38;;;;;;;;;;6249002;23;20020;-91
2023/01/18 02:35:36;;;;;;;18.13;8.45;;;;;;;;;;6151347;23;20397;-91
2023/01/18 02:38:33;;;;;;;21.15;9.60;;;;;;;;;;6178391;23;20017;-90
2023/01/18 02:41:04;;;;;;;20.55;8.35;;;;;;;;;;6162042;23;20021;-90
2023/01/18 02:46:37;;;;;;;23.60;7.68;;;;;;;;;;6161235;23;20383;-91
2023/01/18 02:49:07;;;;;;;22.98;8.60;;;;;;;;;;6161613;23;20485;-91
2023/01/18 02:52:00;;;;;;;17.55;8.07;;;;;;;;;;6186204;23;20051;-90
2023/01/18 02:54:31;;;;;;;16.35;7.25;;;;;;;;;;6186297;23;20332;-91
2023/01/18 02:57:11;;;;;;;20.52;8.20;;;;;;;;;;6186029;23;20016;-91
2023/01/18 02:59:47;;;;;;;17.48;7.72;;;;;;;;;;6136612;23;20227;-90
2023/01/18 03:02:17;;;;;;;19.88;8.05;;;;;;;;;;6160709;23;20021;-91
2023/01/18 03:04:57;;;;;;;27.60;8.73;;;;;;;;;;6126996;23;20029;-90
2023/01/18 03:07:31;;;;;;;19.95;8.00;;;;;;;;;;6127147;23;20079;-91
2023/01/18 03:10:02;;;;;;;20.58;7.82;;;;;;;;;;6205945;23;20050;-91
2023/01/18 03:13:20;;;;;;;23.85;7.97;;;;;;;;;;6218258;23;20067;-91
2023/01/18 03:16:02;;;;;;;18.00;7.65;;;;;;;;;;6223630;23;20043;-91
2023/01/18 03:22:11;;;;;;;21.13;8.27;;;;;;;;;;6238116;23;20024;-90
2023/01/18 03:24:45;;;;;;;21.85;9.13;;;;;;;;;;6247829;23;20097;-90
2023/01/18 03:35:36;;;;;;;24.05;8.98;;;;;;;;;;6238024;23;20020;-90
2023/01/18 03:38:05;;;;;;;19.90;7.65;;;;;;;;;;6213411;23;20023;-91
2023/01/18 03:40:34;;;;;;;21.25;8.75;;;;;;;;;;6248432;23;20099;-91
2023/01/18 03:43:27;;;;;;;21.10;7.80;;;;;;;;;;6238093;22;20400;-90
2023/01/18 03:45:57;;;;;;;16.73;7.68;;;;;;;;;;6249435;22;20532;-91
2023/01/18 03:48:25;;;;;;;27.00;9.18;;;;;;;;;;6213072;23;20373;-90
2023/01/18 03:51:18;;;;;;;21.60;8.57;;;;;;;;;;6238167;23;20028;-91
2023/01/18 03:54:09;;;;;;;20.92;7.95;;;;;;;;;;6248215;23;20016;-91
2023/01/18 03:57:22;;;;;;;25.42;9.13;;;;;;;;;;6212757;23;20020;-91
2023/01/18 03:59:49;;;;;;;23.17;7.60;;;;;;;;;;6155105;23;20032;-91
2023/01/18 04:02:19;;;;;;;19.85;7.95;;;;;;;;;;6096796;23;20501;-90
2023/01/18 04:04:47;;;;;;;22.45;8.52;;;;;;;;;;6130639;23;20104;-91
2023/01/18 04:07:15;;;;;;;18.92;7.32;;;;;;;;;;6120793;23;20415;-91
2023/01/18 04:09:43;;;;;;;23.50;7.82;;;;;;;;;;6096443;23;20021;-91
2023/01/18 04:12:11;;;;;;;16.55;7.88;;;;;;;;;;6155182;23;20033;-91
2023/01/18 04:14:39;;;;;;;20.30;8.70;;;;;;;;;;6131171;23;20569;-91
2023/01/18 04:17:07;;;;;;;20.05;8.75;;;;;;;;;;6155227;23;20082;-91
2023/01/18 04:19:35;;;;;;;21.27;8.10;;;;;;;;;;6130434;23;20021;-91
2023/01/18 04:22:27;;;;;;;20.00;7.93;;;;;;;;;;6120594;23;20043;-91
2023/01/18 04:24:55;;;;;;;22.02;8.73;;;;;;;;;;6155229;23;20172;-91
2023/01/18 04:27:24;;;;;;;21.58;8.70;;;;;;;;;;6131033;23;20013;-91
2023/01/18 04:29:51;;;;;;;17.75;8.10;;;;;;;;;;6096660;23;20887;-91
2023/01/18 04:32:19;;;;;;;19.05;7.88;;;;;;;;;;6155687;23;20025;-90
2023/01/18 04:35:11;;;;;;;14.55;7.45;;;;;;;;;;6120931;23;20716;-90
2023/01/18 04:37:52;;;;;;;21.05;7.85;;;;;;;;;;6230216;23;20523;-91
2023/01/18 04:40:19;;;;;;;22.13;7.93;;;;;;;;;;6247759;23;20099;-91
2023/01/18 04:42:52;;;;;;;26.67;9.38;;;;;;;;;;6223239;23;20437;-90
2023/01/18 04:45:19;;;;;;;21.10;8.98;;;;;;;;;;6249865;22;20031;-91
2023/01/18 04:48:11;;;;;;;23.92;8.80;;;;;;;;;;6238019;23;20523;-90
2023/01/18 04:51:03;;;;;;;24.48;7.68;;;;;;;;;;6250044;23;20068;-91
2023/01/18 04:53:55;;;;;;;20.05;8.43;;;;;;;;;;6248627;23;20028;-91
2023/01/18 04:56:23;;;;;;;26.00;9.30;;;;;;;;;;6213099;23;20020;-91
2023/01/18 04:58:52;;;;;;;25.60;8.00;;;;;;;;;;6248688;23;20779;-91
2023/01/18 05:01:21;;;;;;;19.17;8.13;;;;;;;;;;6247332;23;20040;-91
2023/01/18 05:03:55;;;;;;;18.95;7.90;;;;;;;;;;6246324;23;20103;-92
2023/01/18 05:06:23;;;;;;;21.38;9.25;;;;;;;;;;6223122;23;20633;-90
2023/01/18 05:08:57;;;;;;;23.10;8.63;;;;;;;;;;6224458;23;20016;-90
2023/01/18 05:11:25;;;;;;;24.23;9.05;;;;;;;;;;6248257;23;20040;-91
2023/01/18 05:14:04;;;;;;;21.33;8.63;;;;;;;;;;6248077;23;20504;-91
2023/01/18 05:16:31;;;;;;;24.55;8.60;;;;;;;;;;6222842;23;20009;-90
2023/01/18 05:19:03;;;;;;;25.02;8.82;;;;;;;;;;6248027;23;20091;-91
2023/01/18 05:21:31;;;;;;;15.85;7.22;;;;;;;;;;6213074;23;20538;-91
2023/01/18 05:23:59;;;;;;;21.92;8.45;;;;;;;;;;6248269;23;20027;-91
2023/01/18 05:26:31;;;;;;;18.77;8.15;;;;;;;;;;6248602;23;20011;-91
2023/01/18 05:28:59;;;;;;;20.85;8.13;;;;;;;;;;6249664;22;20586;-90
2023/01/18 05:31:27;;;;;;;18.85;8.60;;;;;;;;;;6214844;23;20031;-91
2023/01/18 05:33:55;;;;;;;21.02;7.65;;;;;;;;;;6225253;23;20031;-91
2023/01/18 05:36:23;;;;;;;20.25;8.23;;;;;;;;;;6250460;23;20016;-91
2023/01/18 05:38:51;;;;;;;18.38;7.95;;;;;;;;;;6190901;23;20511;-90
2023/01/18 05:41:20;;;;;;;19.88;7.32;;;;;;;;;;6250455;23;20039;-91
2023/01/18 05:44:17;;;;;;;19.60;8.52;;;;;;;;;;6221470;23;20027;-91
2023/01/18 05:46:45;;;;;;;22.67;9.23;;;;;;;;;;6250374;23;20564;-91
2023/01/18 05:49:17;;;;;;;20.52;8.68;;;;;;;;;;6216133;23;20024;-92
2023/01/18 05:52:14;;;;;;;16.55;7.90;;;;;;;;;;6251784;23;20636;-90
2023/01/18 05:55:07;;;;;;;23.20;9.82;;;;;;;;;;6251633;23;20092;-91
2023/01/18 05:57:35;;;;;;;24.50;9.13;;;;;;;;;;6214871;23;20016;-91
2023/01/18 06:00:04;;;;;;;23.40;9.60;;;;;;;;;;6239925;23;20103;-91
2023/01/18 06:02:37;;;;;;;23.65;8.75;;;;;;;;;;6249988;23;20020;-91
2023/01/18 06:05:05;;;;;;;20.75;9.20;;;;;;;;;;6240140;23;20606;-91
2023/01/18 06:07:41;;;;;;;20.42;9.10;;;;;;;;;;6217685;23;20022;-90
2023/01/18 06:10:19;;;;;;;22.38;9.15;;;;;;;;;;6257390;23;20016;-91
2023/01/18 06:13:11;;;;;;;20.25;8.50;;;;;;;;;;6251652;23;20621;-91
2023/01/18 06:15:39;;;;;;;16.67;7.78;;;;;;;;;;6240247;23;20028;-90
2023/01/18 06:18:07;;;;;;;19.15;8.60;;;;;;;;;;6239163;23;20050;-91
2023/01/18 06:20:35;;;;;;;19.08;9.45;;;;;;;;;;6225218;23;20020;-88
2023/01/18 06:23:03;;;;;;;20.08;8.50;;;;;;;;;;6250525;23;20099;-92
2023/01/18 06:25:35;;;;;;;21.88;8.52;;;;;;;;;;6251160;23;20022;-90
2023/01/18 06:28:04;;;;;;;22.83;9.40;;;;;;;;;;6225973;23;20020;-92
2023/01/18 06:30:33;;;;;;;26.33;10.00;;;;;;;;;;6238806;22;20740;-92
2023/01/18 06:33:27;;;;;;;19.73;8.85;;;;;;;;;;6250618;23;20086;-91
2023/01/18 06:35:55;;;;;;;20.30;9.70;;;;;;;;;;6189203;23;20498;-89
2023/01/18 06:38:23;;;;;;;22.85;9.05;;;;;;;;;;6253682;23;20016;-86
2023/01/18 06:40:55;;;;;;;20.35;9.35;;;;;;;;;;6258427;22;20043;-92
2023/01/18 06:43:23;;;;;;;19.15;9.57;;;;;;;;;;6196225;23;20026;-92
2023/01/18 06:45:55;;;;;;;24.13;9.82;;;;;;;;;;6225363;23;20027;-93
2023/01/18 06:48:29;;;;;;;16.42;8.18;;;;;;;;;;6234763;23;20050;-93
2023/01/18 06:50:57;;;;;;;23.13;10.25;;;;;;;;;;6232361;23;20020;-92
2023/01/18 06:53:27;;;;;;;24.50;10.07;;;;;;;;;;6256694;23;20016;-93
2023/01/18 06:56:00;;;;;;;22.52;9.63;;;;;;;;;;6268322;23;20043;-92
2023/01/18 06:58:32;;;;;;;19.10;9.15;;;;;;;;;;6208959;23;20024;-93
2023/01/18 07:01:05;;;;;;;21.40;9.27;;;;;;;;;;6210213;23;20023;-93
2023/01/18 07:03:59;;;;;;;18.55;8.65;;;;;;;;;;6269559;23;20102;-93
2023/01/18 07:06:35;;;;;;;26.55;10.00;;;;;;;;;;6211655;23;20024;-93
2023/01/18 07:09:06;;;;;;;20.65;8.85;;;;;;;;;;6270514;23;20023;-94
2023/01/18 07:11:36;;;;;;;18.67;7.90;;;;;;;;;;6234573;23;20508;-93
2023/01/18 07:14:07;;;;;;;25.42;8.52;;;;;;;;;;6236319;23;20024;-94
2023/01/18 07:16:41;;;;;;;20.50;8.00;;;;;;;;;;6212785;23;19996;-93
2023/01/18 07:19:11;;;;;;;23.73;8.90;;;;;;;;;;6236312;23;20046;-94
2023/01/18 07:21:43;;;;;;;23.15;9.23;;;;;;;;;;6212555;23;20024;-93
2023/01/18 07:24:13;;;;;;;22.38;9.13;;;;;;;;;;6245894;23;20016;-93
2023/01/18 07:26:43;;;;;;;21.17;8.30;;;;;;;;;;6235573;23;20393;-93
2023/01/18 07:29:20;;;;;;;21.83;9.50;;;;;;;;;;6212252;23;20027;-93
2023/01/18 07:31:51;;;;;;;19.60;9.20;;;;;;;;;;6210450;23;20020;-94
2023/01/18 07:34:21;;;;;;;20.10;9.40;;;;;;;;;;6236510;23;20024;-93
2023/01/18 07:36:55;;;;;;;21.42;9.32;;;;;;;;;;6236832;23;20023;-94
2023/01/18 07:39:27;;;;;;;22.48;9.00;;;;;;;;;;6237461;23;20050;-94
2023/01/18 07:42:01;;;;;;;18.98;9.85;;;;;;;;;;6208879;23;20020;-93
2023/01/18 07:44:36;;;;;;;26.38;10.77;;;;;;;;;;6237977;23;20055;-93
2023/01/18 07:47:07;;;;;;;23.83;10.15;;;;;;;;;;6264152;23;20023;-93
2023/01/18 07:49:36;;;;;;;26.10;9.70;;;;;;;;;;6268545;23;20020;-93
2023/01/18 07:52:09;;;;;;;34.67;9.13;;;;;;;;;;6244144;23;20024;-93
2023/01/18 07:54:37;;;;;;;23.48;9.85;;;;;;;;;;6233534;23;20047;-93
2023/01/18 07:57:11;;;;;;;24.33;11.70;;;;;;;;;;6233689;23;20102;-93
2023/01/18 07:59:39;;;;;;;32.92;11.75;;;;;;;;;;6233815;23;20039;-93
2023/01/18 08:02:14;;;;;;;21.33;9.32;;;;;;;;;;6233984;23;20030;-93
2023/01/18 08:04:48;;;;;;;29.35;10.15;;;;;;;;;;6235829;23;20110;-93
2023/01/18 08:07:19;;;;;;;23.45;9.88;;;;;;;;;;6245120;23;20032;-93
2023/01/18 08:09:49;;;;;;;29.55;12.15;;;;;;;;;;6233636;23;20035;-93
2023/01/18 08:12:23;;;;;;;24.40;11.88;;;;;;;;;;6211104;23;20066;-93
2023/01/18 08:14:53;;;;;;;27.92;10.82;;;;;;;;;;6245302;23;20012;-94
2023/01/18 08:17:23;;;;;;;23.35;10.70;;;;;;;;;;6244600;23;20012;-92
2023/01/18 08:19:53;;;;;;;18.92;9.43;;;;;;;;;;6235308;22;20023;-92
2023/01/18 08:22:21;;;;;;;23.80;10.27;;;;;;;;;;6210323;23;20024;-94
2023/01/18 08:24:55;;;;;;;26.73;12.77;;;;;;;;;;6270065;23;20016;-92
2023/01/18 08:27:27;;;;;;;27.75;11.88;;;;;;;;;;6211160;23;20023;-93
2023/01/18 08:29:56;;;;;;;23.05;10.95;;;;;;;;;;6234194;23;20024;-93
2023/01/18 08:32:49;;;;;;;24.30;10.55;;;;;;;;;;6240185;23;20039;-93
2023/01/18 08:35:33;;;;;;;26.25;10.85;;;;;;;;;;6234020;23;20027;-93
2023/01/18 08:38:05;;;;;;;17.77;8.32;;;;;;;;;;6210237;23;20008;-92
2023/01/18 08:40:35;;;;;;;23.55;9.48;;;;;;;;;;6245449;23;20015;-94
2023/01/18 08:43:07;;;;;;;20.75;8.95;;;;;;;;;;6268853;23;20170;-93
2023/01/18 08:45:39;;;;;;;19.38;9.45;;;;;;;;;;6208004;23;20050;-93
2023/01/18 08:48:10;;;;;;;22.95;10.18;;;;;;;;;;6207936;23;20015;-93
2023/01/18 08:50:42;;;;;;;21.95;9.90;;;;;;;;;;6209851;23;20087;-93
2023/01/18 08:53:12;;;;;;;25.48;10.50;;;;;;;;;;6233770;23;20026;-92
2023/01/18 08:55:43;;;;;;;28.25;9.40;;;;;;;;;;6233996;23;20020;-93
2023/01/18 08:58:11;;;;;;;22.08;8.73;;;;;;;;;;6207138;23;20031;-94
2023/01/18 09:00:41;;;;;;;19.50;9.13;;;;;;;;;;6231657;23;20590;-94
2023/01/18 09:03:12;;;;;;;23.55;9.68;;;;;;;;;;6242594;23;20012;-93
2023/01/18 09:05:41;;;;;;;29.80;10.38;;;;;;;;;;6268474;23;20071;-93
2023/01/18 09:08:16;;;;;;;26.33;9.52;;;;;;;;;;6244346;23;20020;-93
2023/01/18 09:10:49;;;;;;;27.67;10.93;;;;;;;;;;6258176;23;20031;-94
2023/01/18 09:13:17;;;;;;;22.58;9.57;;;;;;;;;;6208353;23;20016;-93
2023/01/18 09:15:48;;;;;;;23.80;10.00;;;;;;;;;;6242222;23;20043;-94
2023/01/18 09:18:41;;;;;;;20.75;9.25;;;;;;;;;;6236944;23;20067;-92
2023/01/18 09:21:16;;;;;;;19.17;8.93;;;;;;;;;;6235276;23;20024;-92
2023/01/18 09:23:47;;;;;;;20.17;8.63;;;;;;;;;;6269047;23;20016;-92
2023/01/18 09:26:17;;;;;;;21.67;10.43;;;;;;;;;;6243026;23;20074;-93
2023/01/18 09:28:51;;;;;;;19.38;9.25;;;;;;;;;;6232562;23;20031;-93
2023/01/18 09:31:26;;;;;;;19.98;9.07;;;;;;;;;;6207037;23;20024;-93
2023/01/18 09:33:56;;;;;;;26.67;9.35;;;;;;;;;;6242296;23;20020;-92
2023/01/18 09:37:09;;;;;;;21.92;8.45;;;;;;;;;;6267553;23;20082;-92
2023/01/18 09:39:43;;;;;;;20.60;9.23;;;;;;;;;;6232610;23;20408;-92
2023/01/18 09:42:26;;;;;;;24.55;9.50;;;;;;;;;;6265833;23;20020;-92
2023/01/18 09:44:58;;;;;;;20.13;9.88;;;;;;;;;;6241300;23;20095;-93
2023/01/18 09:47:38;;;;;;;29.42;9.82;;;;;;;;;;6229183;23;20021;-93
2023/01/18 09:50:16;;;;;;;20.85;9.50;;;;;;;;;;6205775;23;20020;-92
2023/01/18 09:53:11;;;;;;;26.88;10.27;;;;;;;;;;6240814;23;20066;-92
2023/01/18 09:55:47;;;;;;;21.10;9.05;;;;;;;;;;6251711;23;20040;-92
2023/01/18 09:58:33;;;;;;;23.08;10.23;;;;;;;;;;6227868;23;20012;-92
2023/01/18 10:01:10;;;;;;;25.48;10.27;;;;;;;;;;6202161;23;20107;-92
2023/01/18 10:03:55;;;;;;;20.23;9.35;;;;;;;;;;6227897;23;20032;-92
2023/01/18 10:06:27;;;;;;;28.55;9.05;;;;;;;;;;6202168;23;20020;-92
2023/01/18 10:09:05;;;;;;;19.65;8.90;;;;;;;;;;6253226;22;20103;-92
2023/01/18 10:11:46;;;;;;;26.13;10.45;;;;;;;;;;6261013;23;20015;-93
2023/01/18 10:14:26;;;;;;;25.35;10.48;;;;;;;;;;6261313;23;20429;-92
2023/01/18 10:16:59;;;;;;;19.63;9.20;;;;;;;;;;6259860;23;20039;-92
2023/01/18 10:19:29;;;;;;;23.95;9.60;;;;;;;;;;6235722;23;20020;-92
2023/01/18 10:22:12;;;;;;;25.13;9.73;;;;;;;;;;6260685;23;20016;-90
2023/01/18 10:24:46;;;;;;;21.05;9.27;;;;;;;;;;6236269;23;20034;-92
2023/01/18 10:27:43;;;;;;;25.92;10.13;;;;;;;;;;6201109;23;20454;-93
2023/01/18 10:30:49;;;;;;;25.70;10.43;;;;;;;;;;6249794;23;20021;-93
2023/01/18 10:33:32;;;;;;;20.75;9.65;;;;;;;;;;6198274;23;20337;-92
2023/01/18 10:36:09;;;;;;;23.38;9.75;;;;;;;;;;6201343;23;20403;-93
2023/01/18 10:38:40;;;;;;;19.40;9.85;;;;;;;;;;6237148;23;20016;-92
2023/01/18 10:41:17;;;;;;;24.98;10.25;;;;;;;;;;6201457;23;20020;-93
2023/01/18 10:43:45;;;;;;;20.42;9.95;;;;;;;;;;6261512;23;20027;-92
2023/01/18 10:46:37;;;;;;;20.75;9.75;;;;;;;;;;6240584;23;20012;-92
2023/01/18 10:49:07;;;;;;;23.45;10.95;;;;;;;;;;6225355;23;20043;-92
2023/01/18 10:51:41;;;;;;;21.52;10.02;;;;;;;;;;6236870;23;20371;-92
2023/01/18 10:54:22;;;;;;;21.80;8.93;;;;;;;;;;6225693;23;20020;-93
2023/01/18 10:57:03;;;;;;;25.00;11.20;;;;;;;;;;6226089;23;20028;-94
2023/01/18 10:59:38;;;;;;;21.63;9.25;;;;;;;;;;6233440;23;20012;-92
2023/01/18 11:02:22;;;;;;;19.83;9.68;;;;;;;;;;6257538;23;20106;-93
2023/01/18 11:04:55;;;;;;;25.13;9.68;;;;;;;;;;6199777;23;20023;-92
2023/01/18 11:07:25;;;;;;;24.67;10.30;;;;;;;;;;6224172;23;20038;-92
2023/01/18 11:10:03;;;;;;;29.42;9.38;;;;;;;;;;6201578;23;20042;-91
2023/01/18 11:12:36;;;;;;;20.08;9.65;;;;;;;;;;6223365;23;20020;-92
2023/01/18 11:15:14;;;;;;;26.33;10.48;;;;;;;;;;6248509;23;20048;-93
2023/01/18 11:18:11;;;;;;;28.98;10.93;;;;;;;;;;6261297;23;20043;-93
2023/01/18 11:20:50;;;;;;;25.80;10.73;;;;;;;;;;6262184;23;20016;-93
2023/01/18 11:23:17;;;;;;;20.08;8.95;;;;;;;;;;6227100;23;20099;-92
2023/01/18 11:26:00;;;;;;;21.30;9.82;;;;;;;;;;6261211;23;20023;-91
2023/01/18 11:28:57;;;;;;;25.27;9.82;;;;;;;;;;6236653;23;20012;-93
2023/01/18 11:31:28;;;;;;;24.23;9.43;;;;;;;;;;6235369;23;20024;-93
2023/01/18 11:34:01;;;;;;;20.30;9.73;;;;;;;;;;6223548;23;20080;-92
2023/01/18 11:36:39;;;;;;;24.15;8.80;;;;;;;;;;6196796;23;20078;-93
2023/01/18 11:39:25;;;;;;;20.42;8.63;;;;;;;;;;6223963;23;20016;-93
2023/01/18 11:42:17;;;;;;;20.63;8.82;;;;;;;;;;6223112;23;20028;-93
2023/01/18 11:45:19;;;;;;;20.17;9.70;;;;;;;;;;6199489;23;20016;-92
2023/01/18 11:48:00;;;;;;;19.70;9.57;;;;;;;;;;6223018;23;20024;-92
2023/01/18 11:50:44;;;;;;;23.30;9.00;;;;;;;;;;6224088;23;20036;-92
2023/01/18 11:53:48;;;;;;;19.23;8.98;;;;;;;;;;6224402;23;20018;-92
2023/01/18 11:56:29;;;;;;;23.05;9.35;;;;;;;;;;6199452;23;20028;-93
2023/01/18 11:59:29;;;;;;;18.02;8.32;;;;;;;;;;6259866;23;20031;-92
2023/01/18 12:02:15;;;;;;;18.65;7.85;;;;;;;;;;6198559;23;20399;-93
2023/01/18 12:05:20;;;;;;;22.42;8.65;;;;;;;;;;6199476;23;20102;-93
2023/01/18 12:08:11;;;;;;;21.15;9.40;;;;;;;;;;6260434;22;20022;-92
2023/01/18 12:11:07;;;;;;;19.92;8.57;;;;;;;;;;6234871;23;20052;-92
2023/01/18 12:13:40;;;;;;;18.40;8.40;;;;;;;;;;6258484;23;20024;-92
2023/01/18 12:16:12;;;;;;;21.17;9.00;;;;;;;;;;6202684;23;20107;-92
2023/01/18 12:19:03;;;;;;;17.67;8.77;;;;;;;;;;6240563;23;20032;-93
2023/01/18 12:21:40;;;;;;;19.35;8.80;;;;;;;;;;6206535;23;20051;-93
2023/01/18 12:24:16;;;;;;;19.55;9.57;;;;;;;;;;6229548;23;20042;-93
2023/01/18 12:26:54;;;;;;;19.95;9.00;;;;;;;;;;6229574;23;20027;-93
2023/01/18 12:29:39;;;;;;;18.63;8.48;;;;;;;;;;6205666;23;20106;-93
2023/01/18 12:32:43;;;;;;;24.42;9.25;;;;;;;;;;6241432;23;20452;-93
2023/01/18 12:35:41;;;;;;;18.02;8.25;;;;;;;;;;6256291;23;20027;-94
2023/01/18 12:38:34;;;;;;;26.25;9.90;;;;;;;;;;6255266;23;20027;-94
2023/01/18 12:41:32;;;;;;;22.30;9.57;;;;;;;;;;6206035;23;20016;-93
2023/01/18 12:44:10;;;;;;;23.00;9.38;;;;;;;;;;6205854;23;20017;-93
2023/01/18 12:46:45;;;;;;;28.63;9.07;;;;;;;;;;6205268;23;20028;-94
2023/01/18 12:49:44;;;;;;;18.30;8.57;;;;;;;;;;6236096;23;20024;-93
2023/01/18 12:52:15;;;;;;;25.02;10.15;;;;;;;;;;6265394;23;20026;-94
2023/01/18 12:54:54;;;;;;;24.98;9.32;;;;;;;;;;6231616;23;20074;-93
2023/01/18 12:57:24;;;;;;;22.17;9.73;;;;;;;;;;6205341;23;20026;-93
2023/01/18 13:00:15;;;;;;;23.52;10.43;;;;;;;;;;6206007;23;20036;-94
2023/01/18 13:02:54;;;;;;;19.65;8.38;;;;;;;;;;6255507;23;20021;-94
2023/01/18 13:05:56;;;;;;;22.88;9.10;;;;;;;;;;6267852;23;20453;-93
2023/01/18 13:08:38;;;;;;;21.90;8.50;;;;;;;;;;6242167;23;20031;-93
2023/01/18 13:11:24;;;;;;;22.42;8.80;;;;;;;;;;6242266;23;20012;-93
2023/01/18 13:14:16;;;;;;;24.67;7.85;;;;;;;;;;6241571;23;20016;-94
2023/01/18 13:16:56;;;;;;;19.80;8.13;;;;;;;;;;6230855;23;20044;-93
2023/01/18 13:19:57;;;;;;;24.80;8.45;;;;;;;;;;6254890;23;20020;-93
2023/01/18 13:22:36;;;;;;;18.48;8.43;;;;;;;;;;6218418;23;20028;-94
2023/01/18 13:25:50;;;;;;;20.27;9.60;;;;;;;;;;6227517;23;20011;-93
2023/01/18 13:28:22;;;;;;;19.33;8.80;;;;;;;;;;6228592;23;20020;-92
2023/01/18 13:31:03;;;;;;;20.55;8.65;;;;;;;;;;6211575;23;20024;-94
2023/01/18 13:33:44;;;;;;;19.70;8.82;;;;;;;;;;6204919;23;20024;-91
2023/01/18 13:36:45;;;;;;;17.65;8.80;;;;;;;;;;6264184;23;20016;-92
2023/01/18 13:39:19;;;;;;;19.60;8.50;;;;;;;;;;6224317;23;20020;-92
2023/01/18 13:42:21;;;;;;;22.02;9.48;;;;;;;;;;6228847;23;20502;-91
2023/01/18 13:45:11;;;;;;;17.77;7.63;;;;;;;;;;6227136;23;20016;-91
2023/01/18 13:47:46;;;;;;;20.20;9.13;;;;;;;;;;6252309;22;20440;-93
2023/01/18 13:50:34;;;;;;;19.60;8.07;;;;;;;;;;6252515;23;20067;-91
2023/01/18 13:53:27;;;;;;;17.55;7.40;;;;;;;;;;6255365;23;20012;-92
2023/01/18 13:55:59;;;;;;;17.50;7.22;;;;;;;;;;6254373;22;20382;-91
2023/01/18 13:59:11;;;;;;;16.00;6.40;;;;;;;;;;6254291;23;20023;-90
2023/01/18 14:02:30;;;;;;;14.88;6.57;;;;;;;;;;6255051;23;20007;-91
2023/01/18 14:05:26;;;;;;;19.50;7.53;;;;;;;;;;6231026;23;20024;-92
2023/01/18 14:08:31;;;;;;;17.08;7.50;;;;;;;;;;6225415;23;20071;-91
2023/01/18 14:11:08;;;;;;;17.95;7.97;;;;;;;;;;6258175;23;20512;-91
2023/01/18 14:13:44;;;;;;;20.08;7.85;;;;;;;;;;6222248;23;20028;-91
2023/01/18 14:16:21;;;;;;;18.23;6.90;;;;;;;;;;6197687;23;20027;-91
2023/01/18 14:19:01;;;;;;;17.45;6.65;;;;;;;;;;6221578;23;20020;-91
2023/01/18 14:22:06;;;;;;;14.43;6.55;;;;;;;;;;6198463;23;20044;-91
2023/01/18 14:24:42;;;;;;;17.23;7.35;;;;;;;;;;6196606;23;20027;-91
2023/01/18 14:27:20;;;;;;;14.82;6.63;;;;;;;;;;6195135;23;20016;-90
2023/01/18 14:30:00;;;;;;;18.20;6.97;;;;;;;;;;6252479;23;20444;-88
2023/01/18 14:33:00;;;;;;;19.20;6.72;;;;;;;;;;6218069;23;20030;-89
2023/01/18 14:35:29;;;;;;;25.13;7.00;;;;;;;;;;6249338;23;20020;-89
2023/01/18 14:38:12;;;;;;;16.73;6.75;;;;;;;;;;6223570;23;20020;-89
2023/01/18 14:40:47;;;;;;;13.73;6.05;;;;;;;;;;6225746;23;20378;-89
2023/01/18 14:43:23;;;;;;;15.63;6.80;;;;;;;;;;6225953;23;20040;-89
2023/01/18 14:45:56;;;;;;;15.43;6.00;;;;;;;;;;6253758;23;20087;-89
2023/01/18 14:48:33;;;;;;;14.60;7.25;;;;;;;;;;6248071;23;20038;-89
2023/01/18 14:51:03;;;;;;;14.32;6.18;;;;;;;;;;6250486;22;20070;-89
2023/01/18 14:53:36;;;;;;;14.90;5.47;;;;;;;;;;6238834;23;20020;-89
2023/01/18 14:56:30;;;;;;;14.27;6.35;;;;;;;;;;6238383;23;20321;-89
2023/01/18 14:59:23;;;;;;;13.25;6.00;;;;;;;;;;6224103;23;20023;-88
2023/01/18 15:01:58;;;;;;;12.65;6.05;;;;;;;;;;6226847;23;20028;-89
2023/01/18 15:05:09;;;;;;;16.42;7.05;;;;;;;;;;6248107;23;20027;-88
2023/01/18 15:07:38;;;;;;;12.27;5.53;;;;;;;;;;6241296;23;20027;-89
2023/01/18 15:10:09;;;;;;;14.93;7.15;;;;;;;;;;6248630;23;20040;-89
2023/01/18 15:12:37;;;;;;;17.77;5.85;;;;;;;;;;6249406;23;20016;-89
2023/01/18 15:15:24;;;;;;;12.27;5.80;;;;;;;;;;6250182;23;20031;-89
2023/01/18 15:17:53;;;;;;;15.05;6.03;;;;;;;;;;6223967;23;20020;-89
2023/01/18 15:20:21;;;;;;;17.67;6.18;;;;;;;;;;6224432;23;20103;-89
2023/01/18 15:22:49;;;;;;;17.05;5.70;;;;;;;;;;6247648;23;20479;-90
2023/01/18 15:25:26;;;;;;;13.68;6.40;;;;;;;;;;6251066;22;20046;-90
2023/01/18 15:27:53;;;;;;;17.95;6.47;;;;;;;;;;6249254;23;20020;-89
2023/01/18 15:30:23;;;;;;;15.65;6.38;;;;;;;;;;6250973;22;20016;-89
2023/01/18 15:32:56;;;;;;;13.63;6.15;;;;;;;;;;6249568;23;20038;-90
2023/01/18 15:35:51;;;;;;;15.45;6.20;;;;;;;;;;6250245;23;20007;-90
2023/01/18 15:38:19;;;;;;;14.05;6.43;;;;;;;;;;6252175;23;20016;-89
2023/01/18 15:41:22;;;;;;;14.95;6.72;;;;;;;;;;6246239;22;20432;-89
2023/01/18 15:46:50;;;;;;;13.23;6.75;;;;;;;;;;6252863;23;20344;-90
2023/01/18 15:49:17;;;;;;;13.63;6.18;;;;;;;;;;6240636;23;20119;-90
2023/01/18 15:51:51;;;;;;;15.07;6.85;;;;;;;;;;6252088;22;20019;-90
2023/01/18 15:54:25;;;;;;;19.70;7.43;;;;;;;;;;6251824;23;20016;-91
2023/01/18 15:56:57;;;;;;;15.77;7.00;;;;;;;;;;6253701;23;20022;-90
2023/01/18 15:59:31;;;;;;;10.95;6.15;;;;;;;;;;6250308;23;20012;-90
2023/01/18 16:02:08;;;;;;;17.17;6.88;;;;;;;;;;6250927;23;20044;-89
2023/01/18 16:04:35;;;;;;;11.82;6.10;;;;;;;;;;6260555;22;20522;-88
2023/01/18 16:07:24;;;;;;;16.27;7.45;;;;;;;;;;6225065;23;20050;-89
2023/01/18 16:10:15;;;;;;;17.25;6.13;;;;;;;;;;6273060;22;20020;-89
2023/01/18 16:12:43;;;;;;;12.88;5.95;;;;;;;;;;6258367;23;20019;-89